Time;durP1;ratioP1;P1;durP2;ratioP2;P2;SDS_P1;SDS_P2;PMS_P1;PMS_P2;Temp;Humidity;BMP_temperature;BMP_pressure;BME280_temperature;BME280_humidity;BME280_pressure;Samples;Min_cycle;Max_cycle;Signal;HPM_P1;HPM_P2
2022/01/19 00:00:49;;;;;;;11.50;5.10;;;;;;;;;;5051653;28;20225;-42
2022/01/19 00:03:16;;;;;;;13.07;5.70;;;;;;;;;;5043898;28;20293;-41
2022/01/19 00:05:43;;;;;;;8.40;5.05;;;;;;;;;;5044757;28;20245;-42
2022/01/19 00:08:16;;;;;;;7.78;5.18;;;;;;;;;;5052047;28;20215;-44
2022/01/19 00:10:43;;;;;;;9.38;5.38;;;;;;;;;;5051473;28;20230;-42
2022/01/19 00:13:10;;;;;;;10.18;5.47;;;;;;;;;;5038946;28;20230;-43
2022/01/19 00:15:37;;;;;;;11.23;5.53;;;;;;;;;;5040719;28;20239;-44
2022/01/19 00:18:04;;;;;;;12.48;4.70;;;;;;;;;;5052108;28;20226;-42
2022/01/19 00:20:31;;;;;;;11.07;6.00;;;;;;;;;;5050890;28;20435;-43
2022/01/19 00:22:58;;;;;;;13.98;6.38;;;;;;;;;;5052146;28;20102;-44
2022/01/19 00:25:25;;;;;;;46.15;8.15;;;;;;;;;;5052386;28;21226;-45
2022/01/19 00:27:52;;;;;;;24.85;6.47;;;;;;;;;;5051591;28;20697;-45
2022/01/19 00:30:19;;;;;;;21.05;6.60;;;;;;;;;;5051885;28;20641;-45
2022/01/19 00:32:46;;;;;;;17.98;6.13;;;;;;;;;;5051883;28;20257;-45
2022/01/19 00:35:13;;;;;;;22.65;5.70;;;;;;;;;;5052178;28;21076;-44
2022/01/19 00:37:40;;;;;;;17.35;6.05;;;;;;;;;;5051473;28;20304;-43
2022/01/19 00:40:07;;;;;;;19.42;5.57;;;;;;;;;;5051773;28;20771;-44
2022/01/19 00:42:34;;;;;;;17.40;6.20;;;;;;;;;;5051479;28;20249;-43
2022/01/19 00:45:01;;;;;;;20.38;6.30;;;;;;;;;;5051545;28;20229;-45
2022/01/19 00:47:28;;;;;;;17.05;5.90;;;;;;;;;;5051324;28;20609;-39
2022/01/19 00:49:55;;;;;;;10.93;5.78;;;;;;;;;;5051242;28;21006;-46
2022/01/19 00:52:22;;;;;;;16.33;6.22;;;;;;;;;;5051793;28;20779;-43
2022/01/19 00:54:49;;;;;;;15.02;5.18;;;;;;;;;;5051800;28;20615;-44
2022/01/19 00:57:16;;;;;;;12.07;5.85;;;;;;;;;;5051827;28;21437;-45
2022/01/19 00:59:43;;;;;;;12.23;5.65;;;;;;;;;;5051125;28;20233;-45
2022/01/19 01:02:10;;;;;;;10.05;5.70;;;;;;;;;;5033838;28;20240;-46
2022/01/19 01:04:37;;;;;;;13.85;6.03;;;;;;;;;;5031806;28;20266;-44
2022/01/19 01:07:04;;;;;;;18.00;6.07;;;;;;;;;;5031571;28;20222;-46
2022/01/19 01:09:31;;;;;;;14.85;5.55;;;;;;;;;;5031469;28;20227;-45
2022/01/19 01:12:01;;;;;;;11.32;5.90;;;;;;;;;;5046413;28;20234;-45
2022/01/19 01:19:59;;;;;;;17.25;5.97;;;;;;;;;;5031454;28;20229;-45
2022/01/19 01:22:26;;;;;;;10.13;5.63;;;;;;;;;;5042317;28;20240;-44
2022/01/19 01:24:53;;;;;;;9.70;5.63;;;;;;;;;;5051379;28;20230;-45
2022/01/19 01:27:20;;;;;;;12.43;5.90;;;;;;;;;;5051313;28;20222;-44
2022/01/19 01:29:47;;;;;;;12.32;5.63;;;;;;;;;;5054462;28;20230;-45
2022/01/19 01:32:14;;;;;;;9.18;5.57;;;;;;;;;;5053955;28;20967;-45
2022/01/19 01:34:41;;;;;;;10.85;5.35;;;;;;;;;;5054731;28;20720;-45
2022/01/19 01:37:08;;;;;;;10.07;5.78;;;;;;;;;;5054691;28;20691;-44
2022/01/19 01:39:35;;;;;;;12.38;6.40;;;;;;;;;;5053950;28;20727;-45
2022/01/19 01:42:02;;;;;;;10.23;5.63;;;;;;;;;;5054264;28;20238;-44
2022/01/19 01:44:29;;;;;;;10.20;6.00;;;;;;;;;;5054052;28;20850;-44
2022/01/19 01:46:59;;;;;;;9.77;5.63;;;;;;;;;;5038993;28;20732;-45
2022/01/19 01:49:40;;;;;;;9.88;5.88;;;;;;;;;;5034567;28;20237;-43
2022/01/19 01:54:53;;;;;;;7.90;5.47;;;;;;;;;;5040705;28;20234;-44
2022/01/19 01:57:20;;;;;;;11.93;5.93;;;;;;;;;;5054324;28;20226;-45
2022/01/19 01:59:47;;;;;;;12.18;5.95;;;;;;;;;;5054492;28;20230;-45
2022/01/19 02:02:14;;;;;;;18.85;5.95;;;;;;;;;;5053959;28;20234;-45
2022/01/19 02:04:41;;;;;;;12.55;5.38;;;;;;;;;;5054207;28;20238;-45
2022/01/19 02:09:57;;;;;;;8.75;5.50;;;;;;;;;;5054097;28;20229;-45
2022/01/19 02:23:34;;;;;;;11.27;5.40;;;;;;;;;;5053319;28;21169;-45
2022/01/19 02:26:04;;;;;;;8.00;4.85;;;;;;;;;;5053793;28;20240;-44
2022/01/19 02:42:24;;;;;;;9.07;4.78;;;;;;;;;;5053060;28;21015;-44
2022/01/19 02:49:48;;;;;;;8.70;4.80;;;;;;;;;;5038923;28;20233;-46
2022/01/19 02:52:15;;;;;;;6.80;4.88;;;;;;;;;;5053311;28;20230;-45
2022/01/19 02:54:42;;;;;;;8.20;4.63;;;;;;;;;;5052937;28;20228;-45
2022/01/19 02:57:11;;;;;;;7.22;4.47;;;;;;;;;;5053112;28;20232;-45
2022/01/19 03:10:28;;;;;;;7.63;4.80;;;;;;;;;;5053190;28;20222;-45
2022/01/19 03:12:55;;;;;;;7.05;4.25;;;;;;;;;;5052664;28;20241;-44
2022/01/19 03:15:22;;;;;;;6.03;4.03;;;;;;;;;;5050105;28;20341;-45
2022/01/19 03:17:49;;;;;;;5.13;4.20;;;;;;;;;;5033203;28;20714;-44
2022/01/19 03:20:16;;;;;;;6.13;3.90;;;;;;;;;;5033057;28;20233;-45
2022/01/19 03:22:53;;;;;;;5.53;4.28;;;;;;;;;;5037608;28;20340;-45
2022/01/19 03:25:20;;;;;;;6.40;4.40;;;;;;;;;;5052981;28;20954;-43
2022/01/19 03:27:47;;;;;;;9.50;4.82;;;;;;;;;;5052923;28;20258;-43
2022/01/19 03:30:14;;;;;;;9.50;5.15;;;;;;;;;;5051270;28;20619;-44
2022/01/19 03:32:41;;;;;;;8.00;4.90;;;;;;;;;;5032779;28;21019;-44
2022/01/19 03:35:08;;;;;;;8.43;5.00;;;;;;;;;;5049142;28;20233;-44
2022/01/19 03:37:35;;;;;;;12.75;5.25;;;;;;;;;;5052476;28;20233;-44
2022/01/19 03:40:02;;;;;;;5.78;4.30;;;;;;;;;;5052813;28;20227;-44
2022/01/19 03:42:29;;;;;;;7.70;5.18;;;;;;;;;;5051879;28;20237;-45
2022/01/19 03:44:56;;;;;;;8.48;5.22;;;;;;;;;;5051885;28;20230;-44
2022/01/19 03:47:26;;;;;;;8.05;5.10;;;;;;;;;;5033340;28;20239;-45
2022/01/19 03:49:53;;;;;;;6.80;5.20;;;;;;;;;;5032695;28;20701;-45
2022/01/19 03:52:21;;;;;;;7.88;4.63;;;;;;;;;;5032025;28;20226;-45
2022/01/19 03:54:48;;;;;;;7.72;5.32;;;;;;;;;;5032566;28;20233;-45
2022/01/19 03:57:15;;;;;;;11.65;4.88;;;;;;;;;;5049683;28;20241;-45
2022/01/19 03:59:42;;;;;;;12.20;5.05;;;;;;;;;;5052468;28;20361;-46
2022/01/19 04:02:09;;;;;;;8.48;5.10;;;;;;;;;;5034765;28;20235;-43
2022/01/19 04:04:42;;;;;;;7.25;4.57;;;;;;;;;;5032257;28;20258;-45
2022/01/19 04:07:29;;;;;;;7.43;4.20;;;;;;;;;;5043451;28;21014;-45
2022/01/19 04:09:56;;;;;;;8.25;4.53;;;;;;;;;;5052267;28;20222;-45
2022/01/19 04:15:08;;;;;;;7.70;4.72;;;;;;;;;;5052058;28;20222;-45
2022/01/19 04:17:37;;;;;;;8.02;5.15;;;;;;;;;;5051762;28;20237;-45
2022/01/19 04:20:04;;;;;;;6.97;5.03;;;;;;;;;;5051795;28;20304;-44
2022/01/19 04:22:31;;;;;;;10.48;4.90;;;;;;;;;;5052350;28;20222;-45
2022/01/19 04:24:57;;;;;;;6.50;4.57;;;;;;;;;;5051971;28;20233;-45
2022/01/19 04:30:03;;;;;;;7.10;4.53;;;;;;;;;;5051212;28;20242;-44
2022/01/19 04:32:46;;;;;;;5.55;3.97;;;;;;;;;;5031894;28;20632;-45
2022/01/19 04:35:15;;;;;;;7.65;4.55;;;;;;;;;;5031846;28;20711;-44
2022/01/19 04:44:04;;;;;;;6.97;4.70;;;;;;;;;;5041165;28;20222;-44
2022/01/19 05:02:57;;;;;;;5.35;4.10;;;;;;;;;;5052042;28;20229;-45
2022/01/19 05:05:35;;;;;;;5.90;4.00;;;;;;;;;;5055113;28;20228;-45
2022/01/19 05:08:55;;;;;;;6.07;4.03;;;;;;;;;;5054751;28;20609;-44
2022/01/19 05:13:37;;;;;;;6.82;3.83;;;;;;;;;;5054489;28;20234;-44
2022/01/19 05:16:04;;;;;;;5.80;3.85;;;;;;;;;;5046577;28;20234;-45
2022/01/19 05:18:31;;;;;;;7.38;4.53;;;;;;;;;;5034347;28;20226;-45
2022/01/19 05:20:58;;;;;;;6.57;4.15;;;;;;;;;;5035175;28;20231;-44
2022/01/19 05:23:25;;;;;;;5.82;4.05;;;;;;;;;;5037517;28;22682;-45
2022/01/19 05:25:52;;;;;;;6.35;4.20;;;;;;;;;;5054762;28;20248;-45
2022/01/19 05:28:23;;;;;;;4.65;3.60;;;;;;;;;;5055120;28;20614;-45
2022/01/19 05:30:50;;;;;;;5.30;3.83;;;;;;;;;;5054580;28;20623;-45
2022/01/19 05:33:17;;;;;;;6.93;3.92;;;;;;;;;;5055058;28;20226;-44
2022/01/19 05:35:44;;;;;;;6.18;3.80;;;;;;;;;;5054373;28;20328;-44
2022/01/19 05:38:11;;;;;;;5.70;4.10;;;;;;;;;;5054358;28;20991;-45
2022/01/19 05:40:38;;;;;;;3.75;3.10;;;;;;;;;;5054194;28;20237;-45
2022/01/19 05:43:05;;;;;;;4.15;3.10;;;;;;;;;;5054324;28;20226;-44
2022/01/19 05:45:32;;;;;;;5.55;3.90;;;;;;;;;;5053312;28;20226;-45
2022/01/19 05:47:59;;;;;;;5.60;3.45;;;;;;;;;;5054703;28;20598;-45
2022/01/19 05:50:26;;;;;;;6.40;3.55;;;;;;;;;;5054383;28;20230;-45
2022/01/19 05:52:53;;;;;;;5.65;3.60;;;;;;;;;;5054389;28;20964;-45
2022/01/19 05:55:20;;;;;;;5.60;3.70;;;;;;;;;;5054229;28;20705;-45
2022/01/19 05:57:47;;;;;;;5.13;3.85;;;;;;;;;;5053824;28;20241;-44
2022/01/19 06:00:14;;;;;;;6.30;3.35;;;;;;;;;;5054145;28;20237;-44
2022/01/19 06:02:41;;;;;;;5.40;3.67;;;;;;;;;;5054234;28;20234;-44
2022/01/19 06:05:08;;;;;;;5.82;3.20;;;;;;;;;;5054192;28;20351;-45
2022/01/19 06:07:44;;;;;;;4.60;3.40;;;;;;;;;;5053517;28;20317;-44
2022/01/19 06:10:42;;;;;;;4.05;3.17;;;;;;;;;;5054031;28;20229;-45
2022/01/19 06:12:58;;;;;;;4.97;3.35;;;;;;;;;;5053958;28;20232;-44
2022/01/19 06:15:25;;;;;;;4.38;3.47;;;;;;;;;;5050510;28;20244;-43
2022/01/19 06:17:52;;;;;;;4.82;3.33;;;;;;;;;;5034099;28;21199;-44
2022/01/19 06:20:19;;;;;;;4.72;3.47;;;;;;;;;;5051902;28;20241;-44
2022/01/19 06:22:46;;;;;;;3.38;2.95;;;;;;;;;;5053609;28;20223;-44
2022/01/19 06:25:13;;;;;;;4.82;3.05;;;;;;;;;;5053747;28;20234;-45
2022/01/19 06:27:40;;;;;;;4.63;2.95;;;;;;;;;;5053871;28;20261;-45
2022/01/19 06:30:10;;;;;;;4.55;3.38;;;;;;;;;;5053304;28;21087;-45
2022/01/19 06:32:37;;;;;;;4.75;2.95;;;;;;;;;;5053460;28;20222;-44
2022/01/19 06:35:04;;;;;;;4.22;2.90;;;;;;;;;;5053318;28;20226;-45
2022/01/19 06:37:31;;;;;;;3.72;3.20;;;;;;;;;;5053446;28;20223;-43
2022/01/19 06:39:58;;;;;;;5.07;3.55;;;;;;;;;;5053971;28;20221;-46
2022/01/19 06:42:25;;;;;;;6.07;3.45;;;;;;;;;;5053040;28;20700;-45
2022/01/19 06:44:52;;;;;;;4.18;2.97;;;;;;;;;;5053461;28;20781;-45
2022/01/19 06:47:19;;;;;;;6.03;3.25;;;;;;;;;;5034979;28;20230;-45
2022/01/19 06:49:46;;;;;;;6.00;2.83;;;;;;;;;;5033622;28;20761;-45
2022/01/19 06:52:13;;;;;;;4.88;3.40;;;;;;;;;;5042049;28;20313;-45
2022/01/19 06:54:40;;;;;;;4.75;3.30;;;;;;;;;;5068840;28;20233;-45
2022/01/19 06:57:07;;;;;;;5.57;3.97;;;;;;;;;;5053192;28;20680;-45
2022/01/19 06:59:34;;;;;;;4.20;3.20;;;;;;;;;;5053329;28;20604;-43
2022/01/19 07:02:01;;;;;;;6.18;3.65;;;;;;;;;;5036866;28;20227;-44
2022/01/19 07:04:28;;;;;;;8.23;3.90;;;;;;;;;;5052145;28;20325;-45
2022/01/19 07:06:55;;;;;;;5.30;3.83;;;;;;;;;;5053069;28;20712;-45
2022/01/19 07:09:22;;;;;;;5.60;4.13;;;;;;;;;;5053197;28;20637;-45
2022/01/19 07:11:49;;;;;;;4.80;3.92;;;;;;;;;;5053095;28;20218;-45
2022/01/19 07:14:17;;;;;;;5.28;4.32;;;;;;;;;;5052534;28;20230;-45
2022/01/19 07:16:44;;;;;;;5.82;5.03;;;;;;;;;;5039191;28;21136;-45
2022/01/19 07:19:13;;;;;;;8.55;4.68;;;;;;;;;;5032997;28;20670;-45
2022/01/19 07:21:40;;;;;;;8.38;5.05;;;;;;;;;;5033230;28;20229;-45
2022/01/19 07:24:07;;;;;;;6.03;4.22;;;;;;;;;;5033040;28;20238;-45
2022/01/19 07:26:34;;;;;;;7.30;4.82;;;;;;;;;;5052101;28;20703;-46
2022/01/19 07:29:01;;;;;;;7.82;5.05;;;;;;;;;;5052961;28;20230;-45
2022/01/19 07:31:28;;;;;;;7.72;5.13;;;;;;;;;;5053180;28;20221;-44
2022/01/19 07:33:55;;;;;;;7.15;5.30;;;;;;;;;;5053064;28;20345;-44
2022/01/19 07:36:22;;;;;;;7.32;5.40;;;;;;;;;;5052794;28;20226;-46
2022/01/19 07:38:49;;;;;;;7.43;5.60;;;;;;;;;;5052986;28;20241;-44
2022/01/19 07:41:16;;;;;;;8.98;5.63;;;;;;;;;;5053964;28;20250;-45
2022/01/19 07:43:43;;;;;;;9.32;5.85;;;;;;;;;;5064462;28;20708;-45
2022/01/19 07:46:10;;;;;;;9.15;6.40;;;;;;;;;;5063402;28;20230;-44
2022/01/19 07:48:37;;;;;;;7.72;5.82;;;;;;;;;;5033357;28;20724;-44
2022/01/19 07:51:07;;;;;;;9.93;6.45;;;;;;;;;;5033353;28;20227;-43
2022/01/19 07:53:34;;;;;;;9.13;6.28;;;;;;;;;;5033101;28;20258;-45
2022/01/19 07:56:01;;;;;;;10.15;6.85;;;;;;;;;;5033054;28;20247;-44
2022/01/19 07:58:28;;;;;;;8.93;6.43;;;;;;;;;;5044176;28;20234;-45
2022/01/19 08:00:55;;;;;;;8.55;5.80;;;;;;;;;;5046232;28;20238;-43
2022/01/19 08:03:22;;;;;;;9.25;6.60;;;;;;;;;;5041779;28;20228;-44
2022/01/19 08:05:49;;;;;;;11.38;5.95;;;;;;;;;;5052824;28;20248;-45
2022/01/19 08:08:16;;;;;;;7.68;5.82;;;;;;;;;;5052835;28;20964;-44
2022/01/19 08:10:45;;;;;;;10.23;6.60;;;;;;;;;;5052777;28;20230;-44
2022/01/19 08:13:14;;;;;;;12.45;6.65;;;;;;;;;;5052566;28;20225;-44
2022/01/19 08:15:41;;;;;;;10.18;7.47;;;;;;;;;;5052108;28;20985;-45
2022/01/19 08:18:08;;;;;;;8.30;6.82;;;;;;;;;;5070914;28;21054;-45
2022/01/19 08:20:35;;;;;;;12.55;7.03;;;;;;;;;;5058776;28;20230;-45
2022/01/19 08:23:04;;;;;;;11.48;6.97;;;;;;;;;;5054972;28;20317;-45
2022/01/19 08:25:30;;;;;;;14.88;6.63;;;;;;;;;;5053597;28;20245;-45
2022/01/19 08:27:57;;;;;;;13.25;6.03;;;;;;;;;;5053408;28;20304;-45
2022/01/19 08:30:24;;;;;;;10.00;6.93;;;;;;;;;;5053517;28;20218;-44
2022/01/19 08:32:51;;;;;;;9.75;6.22;;;;;;;;;;5053602;28;20217;-45
2022/01/19 08:35:18;;;;;;;10.48;6.55;;;;;;;;;;5053599;28;20226;-46
2022/01/19 08:37:45;;;;;;;10.93;6.60;;;;;;;;;;5053422;28;20225;-44
2022/01/19 08:40:13;;;;;;;12.73;6.65;;;;;;;;;;5053815;28;20222;-45
2022/01/19 08:42:40;;;;;;;17.80;7.40;;;;;;;;;;5053941;28;20437;-45
2022/01/19 08:45:07;;;;;;;14.65;7.82;;;;;;;;;;5056603;28;20241;-44
2022/01/19 08:47:34;;;;;;;14.05;9.02;;;;;;;;;;5054703;28;20704;-42
2022/01/19 08:50:02;;;;;;;15.75;8.77;;;;;;;;;;5053930;28;20222;-37
2022/01/19 08:52:29;;;;;;;29.23;9.20;;;;;;;;;;5053940;28;20229;-43
2022/01/19 08:54:56;;;;;;;16.85;8.20;;;;;;;;;;5053162;28;20229;-42
2022/01/19 08:57:24;;;;;;;13.45;7.78;;;;;;;;;;5042938;28;20268;-44
2022/01/19 08:59:51;;;;;;;13.68;7.97;;;;;;;;;;5051452;28;20720;-45
2022/01/19 09:02:18;;;;;;;14.75;7.90;;;;;;;;;;5033997;28;20242;-44
2022/01/19 09:04:45;;;;;;;16.58;7.55;;;;;;;;;;5045050;28;20241;-46
2022/01/19 09:07:13;;;;;;;13.68;7.40;;;;;;;;;;5052605;28;20314;-45
2022/01/19 09:09:40;;;;;;;13.18;7.47;;;;;;;;;;5052248;28;20214;-45
2022/01/19 09:12:07;;;;;;;11.32;7.38;;;;;;;;;;5051924;28;20214;-44
2022/01/19 09:14:34;;;;;;;15.13;7.65;;;;;;;;;;5044369;28;20222;-45
2022/01/19 09:17:06;;;;;;;10.65;7.22;;;;;;;;;;5043757;28;20230;-45
2022/01/19 09:19:33;;;;;;;13.43;7.63;;;;;;;;;;5051119;28;20248;-44
2022/01/19 09:22:02;;;;;;;12.43;7.57;;;;;;;;;;5050295;28;20236;-45
2022/01/19 09:24:29;;;;;;;13.43;7.45;;;;;;;;;;5051654;28;20248;-42
2022/01/19 09:26:56;;;;;;;13.68;7.20;;;;;;;;;;5049787;28;20265;-45
2022/01/19 09:29:23;;;;;;;13.45;7.82;;;;;;;;;;5054084;28;20333;-43
2022/01/19 09:31:50;;;;;;;10.02;6.40;;;;;;;;;;5051450;28;20225;-46
2022/01/19 09:34:20;;;;;;;16.70;7.28;;;;;;;;;;5050754;28;20987;-45
2022/01/19 09:36:48;;;;;;;11.27;7.20;;;;;;;;;;5050609;28;20242;-45
2022/01/19 09:39:15;;;;;;;17.38;8.18;;;;;;;;;;5050413;28;20226;-46
2022/01/19 09:41:42;;;;;;;16.23;8.07;;;;;;;;;;5049901;28;20289;-45
2022/01/19 09:44:09;;;;;;;10.60;7.05;;;;;;;;;;5050434;28;20384;-44
2022/01/19 09:46:36;;;;;;;13.35;7.60;;;;;;;;;;5041316;28;20689;-45
2022/01/19 09:49:05;;;;;;;8.73;7.40;;;;;;;;;;5047348;28;20237;-33
2022/01/19 09:51:32;;;;;;;13.80;7.57;;;;;;;;;;5052682;28;20248;-32
2022/01/19 09:53:59;;;;;;;8.32;6.95;;;;;;;;;;5053132;28;20233;-34
2022/01/19 09:56:26;;;;;;;8.57;7.40;;;;;;;;;;5054267;28;20249;-34
2022/01/19 09:58:53;;;;;;;10.27;8.15;;;;;;;;;;5053313;28;20230;-34
2022/01/19 10:01:20;;;;;;;10.90;7.90;;;;;;;;;;5054016;28;20234;-34
2022/01/19 10:03:47;;;;;;;13.27;7.05;;;;;;;;;;5053892;28;20309;-34
2022/01/19 10:06:14;;;;;;;19.13;8.30;;;;;;;;;;5052558;28;20422;-36
2022/01/19 10:08:41;;;;;;;14.90;7.90;;;;;;;;;;5053923;28;20226;-35
2022/01/19 10:11:10;;;;;;;12.25;7.40;;;;;;;;;;5053254;28;20226;-37
2022/01/19 10:19:08;;;;;;;14.25;7.47;;;;;;;;;;5033900;28;20235;-35
2022/01/19 10:21:35;;;;;;;12.55;7.53;;;;;;;;;;5045483;28;20234;-36
2022/01/19 10:24:02;;;;;;;14.65;7.85;;;;;;;;;;5053512;28;20232;-33
2022/01/19 10:26:31;;;;;;;11.18;6.95;;;;;;;;;;5050461;28;20294;-37
2022/01/19 10:29:01;;;;;;;15.60;6.90;;;;;;;;;;5044351;28;20262;-34
2022/01/19 10:31:28;;;;;;;10.45;7.03;;;;;;;;;;5052361;28;20230;-35
2022/01/19 10:33:55;;;;;;;12.27;7.05;;;;;;;;;;5053623;28;20233;-35
2022/01/19 10:36:22;;;;;;;11.60;6.80;;;;;;;;;;5052723;28;20715;-35
2022/01/19 10:38:50;;;;;;;11.32;6.80;;;;;;;;;;5052482;28;20261;-33
2022/01/19 10:41:17;;;;;;;8.57;6.82;;;;;;;;;;5053241;28;20242;-33
2022/01/19 10:43:44;;;;;;;13.20;7.00;;;;;;;;;;5052120;28;20226;-32
2022/01/19 10:46:11;;;;;;;14.23;7.15;;;;;;;;;;5043613;28;20444;-38
2022/01/19 10:48:38;;;;;;;9.07;7.07;;;;;;;;;;5033450;28;20389;-33
2022/01/19 10:51:07;;;;;;;10.18;7.20;;;;;;;;;;5033403;28;20254;-33
2022/01/19 10:53:34;;;;;;;14.07;7.55;;;;;;;;;;5048808;28;20230;-35
2022/01/19 10:56:05;;;;;;;14.40;7.28;;;;;;;;;;5061574;28;20245;-33
2022/01/19 10:58:32;;;;;;;9.38;7.20;;;;;;;;;;5053079;28;20309;-33
2022/01/19 11:00:59;;;;;;;12.10;6.93;;;;;;;;;;5052711;28;20237;-33
2022/01/19 11:03:26;;;;;;;15.05;6.70;;;;;;;;;;5052777;28;20226;-34
2022/01/19 11:05:53;;;;;;;9.55;6.47;;;;;;;;;;5052540;28;21115;-33
2022/01/19 11:08:20;;;;;;;12.35;6.80;;;;;;;;;;5052621;28;20227;-34
2022/01/19 11:10:49;;;;;;;10.13;6.50;;;;;;;;;;5052961;28;20232;-32
2022/01/19 11:13:25;;;;;;;9.50;6.53;;;;;;;;;;5052848;28;20226;-34
2022/01/19 11:15:52;;;;;;;10.70;6.60;;;;;;;;;;5050997;28;20711;-35
2022/01/19 11:18:21;;;;;;;9.77;6.00;;;;;;;;;;5052844;28;20265;-34
2022/01/19 11:20:48;;;;;;;12.23;6.22;;;;;;;;;;5052513;28;20253;-33
2022/01/19 11:23:16;;;;;;;9.70;6.00;;;;;;;;;;5052520;28;20673;-34
2022/01/19 11:25:43;;;;;;;9.27;5.72;;;;;;;;;;5051827;28;20241;-34
2022/01/19 11:28:12;;;;;;;8.65;6.05;;;;;;;;;;5050752;28;20228;-38
2022/01/19 11:30:39;;;;;;;6.78;6.05;;;;;;;;;;5050504;28;20230;-31
2022/01/19 11:33:06;;;;;;;8.15;6.03;;;;;;;;;;5072368;28;20236;-34
2022/01/19 11:35:33;;;;;;;6.40;5.47;;;;;;;;;;5059679;28;21291;-35
2022/01/19 11:38:00;;;;;;;6.38;5.65;;;;;;;;;;5051645;28;20983;-32
2022/01/19 11:40:27;;;;;;;7.50;5.78;;;;;;;;;;5051191;28;20226;-39
2022/01/19 11:42:53;;;;;;;7.28;5.57;;;;;;;;;;5051399;28;20245;-33
2022/01/19 11:45:20;;;;;;;6.88;4.97;;;;;;;;;;5052503;28;20260;-33
2022/01/19 11:47:47;;;;;;;8.45;6.32;;;;;;;;;;5051645;28;20214;-31
2022/01/19 11:50:15;;;;;;;8.63;5.53;;;;;;;;;;5051878;28;20234;-32
2022/01/19 11:52:42;;;;;;;9.77;5.53;;;;;;;;;;5051328;28;21134;-34
2022/01/19 11:55:09;;;;;;;7.32;6.00;;;;;;;;;;5052767;28;20249;-34
2022/01/19 11:57:36;;;;;;;10.88;6.13;;;;;;;;;;5051326;28;20229;-33
2022/01/19 12:00:03;;;;;;;7.03;5.65;;;;;;;;;;5051984;28;20233;-31
2022/01/19 12:02:35;;;;;;;5.80;5.18;;;;;;;;;;5031687;28;20230;-32
2022/01/19 12:05:24;;;;;;;8.32;5.80;;;;;;;;;;5031949;28;20243;-31
2022/01/19 12:07:55;;;;;;;8.45;5.63;;;;;;;;;;5032266;28;20718;-31
2022/01/19 12:10:23;;;;;;;8.98;5.78;;;;;;;;;;5034049;28;20226;-32
2022/01/19 12:13:07;;;;;;;7.55;5.97;;;;;;;;;;5051633;28;20230;-33
2022/01/19 12:15:34;;;;;;;9.45;5.70;;;;;;;;;;5047648;28;20440;-31
2022/01/19 12:18:09;;;;;;;9.48;5.78;;;;;;;;;;5032081;28;20309;-31
2022/01/19 12:20:36;;;;;;;8.27;6.15;;;;;;;;;;5032247;28;20222;-35
2022/01/19 12:23:03;;;;;;;6.97;5.80;;;;;;;;;;5039115;28;20233;-31
2022/01/19 12:25:30;;;;;;;7.50;6.40;;;;;;;;;;5049927;28;20419;-33
2022/01/19 12:28:00;;;;;;;14.40;8.50;;;;;;;;;;5051381;28;20437;-45
2022/01/19 12:30:31;;;;;;;19.58;8.85;;;;;;;;;;5051124;28;20218;-35
2022/01/19 12:32:58;;;;;;;10.25;7.57;;;;;;;;;;5051490;28;20234;-37
2022/01/19 12:35:27;;;;;;;12.82;8.18;;;;;;;;;;5050762;28;20210;-36
2022/01/19 12:37:54;;;;;;;12.65;7.60;;;;;;;;;;5051469;28;20598;-36
2022/01/19 12:40:25;;;;;;;10.98;6.95;;;;;;;;;;5051193;28;20237;-37
2022/01/19 12:42:52;;;;;;;10.32;6.90;;;;;;;;;;5050602;28;20242;-37
2022/01/19 12:45:19;;;;;;;12.32;6.90;;;;;;;;;;5051115;28;20608;-36
2022/01/19 12:47:46;;;;;;;8.02;6.05;;;;;;;;;;5051680;28;20974;-37
2022/01/19 12:50:13;;;;;;;8.15;6.50;;;;;;;;;;5051304;28;20237;-36
2022/01/19 12:52:40;;;;;;;10.82;6.80;;;;;;;;;;5051438;28;20233;-38
2022/01/19 12:55:07;;;;;;;12.40;6.43;;;;;;;;;;5059055;28;20240;-35
2022/01/19 12:57:34;;;;;;;10.27;6.07;;;;;;;;;;5071547;28;20317;-37
2022/01/19 13:00:01;;;;;;;8.68;6.30;;;;;;;;;;5071116;28;20256;-38
2022/01/19 13:02:28;;;;;;;7.78;6.20;;;;;;;;;;5050721;28;20230;-36
2022/01/19 13:04:55;;;;;;;9.90;5.97;;;;;;;;;;5050858;28;21238;-35
2022/01/19 13:07:22;;;;;;;7.60;6.75;;;;;;;;;;5051291;28;20230;-35
2022/01/19 13:09:52;;;;;;;9.07;6.80;;;;;;;;;;5051395;28;20685;-36
2022/01/19 13:12:19;;;;;;;9.38;6.25;;;;;;;;;;5051513;28;20226;-34
2022/01/19 13:14:46;;;;;;;9.52;6.45;;;;;;;;;;5051510;28;20226;-37
2022/01/19 13:17:13;;;;;;;10.45;6.60;;;;;;;;;;5050635;28;20222;-39
2022/01/19 13:20:00;;;;;;;16.70;7.72;;;;;;;;;;5050257;28;20431;-38
2022/01/19 13:22:27;;;;;;;18.17;7.60;;;;;;;;;;5051343;28;20248;-35
2022/01/19 13:24:59;;;;;;;22.17;7.80;;;;;;;;;;5051979;28;21374;-34
2022/01/19 13:27:31;;;;;;;15.75;6.72;;;;;;;;;;5053239;28;20231;-36
2022/01/19 13:29:58;;;;;;;14.93;7.47;;;;;;;;;;5053528;28;20230;-36
2022/01/19 13:32:26;;;;;;;10.02;6.95;;;;;;;;;;5033841;28;20242;-35
2022/01/19 13:34:53;;;;;;;10.95;7.00;;;;;;;;;;5034283;28;21096;-36
2022/01/19 13:37:20;;;;;;;11.40;6.40;;;;;;;;;;5033857;28;20215;-36
2022/01/19 13:39:47;;;;;;;10.80;6.78;;;;;;;;;;5047386;28;20234;-37
2022/01/19 13:42:14;;;;;;;9.88;6.95;;;;;;;;;;5053659;28;20241;-36
2022/01/19 13:44:48;;;;;;;12.15;6.60;;;;;;;;;;5053723;28;20222;-35
2022/01/19 13:47:26;;;;;;;10.32;7.20;;;;;;;;;;5053415;28;20711;-38
2022/01/19 13:49:53;;;;;;;11.80;6.50;;;;;;;;;;5052959;28;20230;-41
2022/01/19 13:52:20;;;;;;;12.00;6.72;;;;;;;;;;5053571;28;20987;-35
2022/01/19 13:54:47;;;;;;;8.98;7.00;;;;;;;;;;5053660;28;20214;-33
2022/01/19 13:57:14;;;;;;;9.52;6.90;;;;;;;;;;5053063;28;20222;-38
2022/01/19 13:59:43;;;;;;;8.98;7.00;;;;;;;;;;5053347;28;20226;-40
2022/01/19 14:02:10;;;;;;;9.88;7.28;;;;;;;;;;5051520;28;20707;-35
2022/01/19 14:04:38;;;;;;;10.90;7.18;;;;;;;;;;5052920;28;20230;-34
2022/01/19 14:07:05;;;;;;;9.55;7.60;;;;;;;;;;5052568;28;20993;-34
2022/01/19 14:09:34;;;;;;;12.57;7.40;;;;;;;;;;5052640;28;20223;-35
2022/01/19 14:12:02;;;;;;;9.80;7.15;;;;;;;;;;5052529;28;20232;-36
2022/01/19 14:14:35;;;;;;;9.77;7.10;;;;;;;;;;5052583;28;20229;-37
2022/01/19 14:17:02;;;;;;;9.25;6.63;;;;;;;;;;5052224;28;20280;-35
2022/01/19 14:19:30;;;;;;;8.85;7.10;;;;;;;;;;5053200;28;20233;-35
2022/01/19 14:21:58;;;;;;;8.10;6.50;;;;;;;;;;5052761;28;20778;-39
2022/01/19 14:24:25;;;;;;;8.23;6.75;;;;;;;;;;5050819;28;20245;-38
2022/01/19 14:26:52;;;;;;;9.35;6.90;;;;;;;;;;5053039;28;20248;-40
2022/01/19 14:29:19;;;;;;;7.85;6.32;;;;;;;;;;5053479;28;20226;-41
2022/01/19 14:31:46;;;;;;;8.40;6.60;;;;;;;;;;5052908;28;20219;-37
2022/01/19 14:34:19;;;;;;;11.00;7.18;;;;;;;;;;5052251;28;20322;-45
2022/01/19 14:36:46;;;;;;;15.75;7.30;;;;;;;;;;5051149;28;20252;-42
2022/01/19 14:39:13;;;;;;;9.95;7.80;;;;;;;;;;5052248;28;20234;-36
2022/01/19 14:41:42;;;;;;;11.50;7.93;;;;;;;;;;5060507;28;20229;-43
2022/01/19 14:49:38;;;;;;;9.88;7.22;;;;;;;;;;4988553;28;20235;-35
2022/01/19 14:52:05;;;;;;;11.32;7.57;;;;;;;;;;4994015;28;20239;-36
2022/01/19 14:54:32;;;;;;;12.70;7.53;;;;;;;;;;4990481;28;20243;-37
2022/01/19 14:56:59;;;;;;;8.40;6.85;;;;;;;;;;4994843;28;20236;-37
2022/01/19 14:59:32;;;;;;;9.43;7.28;;;;;;;;;;4991083;28;20223;-37
2022/01/19 15:02:01;;;;;;;11.88;7.35;;;;;;;;;;4990211;28;20353;-37
2022/01/19 15:04:28;;;;;;;8.57;7.22;;;;;;;;;;4989006;28;20232;-36
2022/01/19 15:07:02;;;;;;;9.00;6.35;;;;;;;;;;4989119;28;20244;-35
2022/01/19 15:09:29;;;;;;;9.98;7.00;;;;;;;;;;4990454;28;20239;-36
2022/01/19 15:11:56;;;;;;;11.20;6.82;;;;;;;;;;4989719;28;20323;-35
2022/01/19 15:14:23;;;;;;;11.60;7.30;;;;;;;;;;4988935;28;20243;-35
2022/01/19 15:16:50;;;;;;;10.98;7.60;;;;;;;;;;4989995;28;20244;-36
2022/01/19 15:19:17;;;;;;;9.35;6.90;;;;;;;;;;4987449;28;20259;-36
2022/01/19 15:21:44;;;;;;;11.52;7.10;;;;;;;;;;4989448;28;20228;-35
2022/01/19 15:24:12;;;;;;;11.93;7.85;;;;;;;;;;4989215;28;20239;-35
2022/01/19 15:26:44;;;;;;;12.73;7.80;;;;;;;;;;4988754;28;20295;-37
2022/01/19 15:29:13;;;;;;;11.38;8.18;;;;;;;;;;4987401;28;20236;-35
2022/01/19 15:31:44;;;;;;;10.13;7.45;;;;;;;;;;4989898;28;20243;-37
2022/01/19 15:34:11;;;;;;;14.02;8.27;;;;;;;;;;4988627;28;20236;-36
2022/01/19 15:36:38;;;;;;;9.43;7.45;;;;;;;;;;4989975;28;20236;-36
2022/01/19 15:39:07;;;;;;;13.80;8.15;;;;;;;;;;4992878;28;20243;-36
2022/01/19 15:41:34;;;;;;;11.57;7.88;;;;;;;;;;4997017;28;20234;-35
2022/01/19 15:44:01;;;;;;;12.38;7.95;;;;;;;;;;4993053;28;20259;-36
2022/01/19 15:46:33;;;;;;;13.80;8.02;;;;;;;;;;4995161;28;20244;-37
2022/01/19 15:49:03;;;;;;;11.35;7.65;;;;;;;;;;4995455;28;20252;-37
2022/01/19 15:51:36;;;;;;;11.07;7.60;;;;;;;;;;4995633;28;20232;-37
2022/01/19 15:54:03;;;;;;;9.43;7.07;;;;;;;;;;4993522;28;21089;-36
2022/01/19 15:56:30;;;;;;;9.40;6.88;;;;;;;;;;4992584;28;20323;-36
2022/01/19 15:58:57;;;;;;;8.60;7.45;;;;;;;;;;4994751;28;20707;-36
2022/01/19 16:01:24;;;;;;;10.43;6.90;;;;;;;;;;4992024;28;20243;-35
2022/01/19 16:03:51;;;;;;;10.07;7.80;;;;;;;;;;4988423;28;20236;-35
2022/01/19 16:06:18;;;;;;;11.80;7.00;;;;;;;;;;4991499;28;20235;-36
2022/01/19 16:08:45;;;;;;;10.20;7.28;;;;;;;;;;4989918;28;20435;-37
2022/01/19 16:11:12;;;;;;;12.35;8.10;;;;;;;;;;4994459;28;20418;-35
2022/01/19 16:13:39;;;;;;;10.13;7.22;;;;;;;;;;4987648;28;20246;-35